Linda Lee Bouchard — WDD4370 — position and weather

sailwx.info

Track history (hours):
 
Tides and Currents Weather Stations Pressure Air Temp Water Temp Dewpoint Dewpoint Depression Visibility Wind Speed Wind Dir Waves Ship Positions

Linda Lee Bouchard

Owner: LINDA LEE BOUCHARD, Melville, NY. More information available from US FCC via Universal Licensing System and Coast Guard Vessel Documentation Center.

Last reported at 2018-Jun-16 21:40 UTC. Time now 2018-Jun-25 13:50 UTC.
Position N 25°22' W 080°03'.
Warning: this ship's position is 8 days out of date.

Length 162 m; draft 8.1 m.

Type: . MMSI: 367115000.

Date/timePositionNaut miles runAvg speedWind from/ knotsBaromVisibWave heightAir tempDewpointWater temp
2018-Jun-16 21:40N 25°22' W 080°03'6 7.5
2018-Jun-16 20:54N 25°27' W 080°02'3 7.4
2018-Jun-16 20:28N 25°31' W 080°02'3 7.4
2018-Jun-16 20:00N 25°34' W 080°02'4 7.3
2018-Jun-16 19:31N 25°38' W 080°02'4 7.3
2018-Jun-16 19:01N 25°41' W 080°03'4 7.2
2018-Jun-16 18:29N 25°45' W 080°03'4 7.4
2018-Jun-16 18:00N 25°49' W 080°03'4 7.5
2018-Jun-16 17:31N 25°52' W 080°04'4 8.5
2018-Jun-16 17:01N 25°57' W 080°04'4 8.4
2018-Jun-16 16:31N 26°00' W 080°02'4 7.7
2018-Jun-16 16:01N 26°04' W 080°03'4 8.1
2018-Jun-16 15:29N 26°06' W 080°07'0 0.5
2018-Jun-16 15:01N 26°06' W 080°07'0 0.0
2018-Jun-16 14:30N 26°06' W 080°07'0 0.0
2018-Jun-16 13:59N 26°06' W 080°07'0 0.0
2018-Jun-16 13:30N 26°06' W 080°07'0 0.0
2018-Jun-16 13:00N 26°06' W 080°07'0 0.0
2018-Jun-16 12:30N 26°06' W 080°07'0 0.0
2018-Jun-16 12:00N 26°06' W 080°07'0 0.0
2018-Jun-16 11:30N 26°06' W 080°07'0 0.0
2018-Jun-16 10:59N 26°06' W 080°07'0 0.0
2018-Jun-16 10:30N 26°06' W 080°07'0 0.0
2018-Jun-16 10:00N 26°06' W 080°07'0 0.0
2018-Jun-16 09:30N 26°06' W 080°07'0 0.0
2018-Jun-16 09:00N 26°06' W 080°07'0 0.0
2018-Jun-16 08:29N 26°06' W 080°07'0 0.0
2018-Jun-16 08:00N 26°06' W 080°07'0 0.0
2018-Jun-16 07:29N 26°06' W 080°07'0 0.0
2018-Jun-16 07:01N 26°06' W 080°07'0 0.0
2018-Jun-16 06:31N 26°06' W 080°07'0 0.0
2018-Jun-16 06:00N 26°06' W 080°07'0 0.0
2018-Jun-16 05:29N 26°06' W 080°07'0 0.0
2018-Jun-16 05:00N 26°06' W 080°07'0 0.0
2018-Jun-16 04:31N 26°06' W 080°07'0 0.0
2018-Jun-16 04:01N 26°06' W 080°07'0 0.0
2018-Jun-16 03:30N 26°06' W 080°07'0 0.0
2018-Jun-16 03:01N 26°06' W 080°07'0 0.0
2018-Jun-16 02:31N 26°06' W 080°07'0 0.0
2018-Jun-16 02:00N 26°06' W 080°07'0 0.0
2018-Jun-16 01:31N 26°06' W 080°07'0 0.0
2018-Jun-16 01:00N 26°06' W 080°07'0 0.0
2018-Jun-16 00:30N 26°06' W 080°07'0 0.0
2018-Jun-16 00:01N 26°06' W 080°07'0 0.0
2018-Jun-15 23:30N 26°06' W 080°07'0 0.0
2018-Jun-15 23:00N 26°06' W 080°07'0 0.0
2018-Jun-15 22:29N 26°06' W 080°07'0 0.0
2018-Jun-15 22:00N 26°06' W 080°07'0 0.0
2018-Jun-15 21:30N 26°06' W 080°07'0 0.0
2018-Jun-15 20:57N 26°06' W 080°07'0 0.0
2018-Jun-15 20:30N 26°06' W 080°07'0 0.0
2018-Jun-15 20:00N 26°06' W 080°07'0 0.0
2018-Jun-15 19:30N 26°06' W 080°07'0 0.0
2018-Jun-15 19:00N 26°06' W 080°07'0 0.0
2018-Jun-15 18:30N 26°06' W 080°07'0 0.0
2018-Jun-15 18:00N 26°06' W 080°07'0 0.0
2018-Jun-15 17:30N 26°06' W 080°07'0 0.0
2018-Jun-15 17:00N 26°06' W 080°07'0 0.0
2018-Jun-15 16:31N 26°06' W 080°07'0 0.0
2018-Jun-15 16:01N 26°06' W 080°07'0 0.0
2018-Jun-15 15:31N 26°06' W 080°07'0 0.0
2018-Jun-15 15:01N 26°06' W 080°07'0 0.0
2018-Jun-15 14:31N 26°06' W 080°07'0 0.0
2018-Jun-15 14:00N 26°06' W 080°07'0 0.0
2018-Jun-15 13:31N 26°06' W 080°07'0 0.0
2018-Jun-15 13:01N 26°06' W 080°07'0 0.0
2018-Jun-15 12:31N 26°06' W 080°07'0 0.0
2018-Jun-15 12:00N 26°06' W 080°07'0 0.0
2018-Jun-15 11:31N 26°06' W 080°07'0 0.0
2018-Jun-15 11:00N 26°06' W 080°07'0 0.0
2018-Jun-15 10:30N 26°06' W 080°07'0 0.0
2018-Jun-15 10:00N 26°06' W 080°07'0 0.0
2018-Jun-15 09:30N 26°06' W 080°07'0 0.0
2018-Jun-15 09:00N 26°06' W 080°07'0 0.4
2018-Jun-15 08:29N 26°06' W 080°07'3 5.2
2018-Jun-15 08:00N 26°06' W 080°04'3 5.2
2018-Jun-15 07:30N 26°09' W 080°04'3 5.9
2018-Jun-15 07:00N 26°12' W 080°03'4 8.2
2018-Jun-15 06:30N 26°16' W 080°02'4 8.4
2018-Jun-15 06:00N 26°20' W 080°02'26 1.0
2018-Jun-14 02:39N 26°46' W 080°03'1 1.9
2018-Jun-14 02:22N 26°46' W 080°02'27 6.4
2018-Jun-13 22:14N 26°20' W 079°55'2 7.4
2018-Jun-13 22:01N 26°19' W 079°55'4 7.2
2018-Jun-13 21:29N 26°15' W 079°56'3 7.2
2018-Jun-13 21:00N 26°12' W 079°56'4 7.0
2018-Jun-13 20:30N 26°08' W 079°57'3 7.2
2018-Jun-13 20:01N 26°05' W 079°57'4 7.2
2018-Jun-13 19:31N 26°01' W 079°58'4 7.3
2018-Jun-13 19:01N 25°57' W 079°58'4 7.3
2018-Jun-13 18:31N 25°54' W 079°58'4 7.1
2018-Jun-13 18:01N 25°50' W 079°59'4 7.4
2018-Jun-13 17:31N 25°47' W 079°59'4 8.1
2018-Jun-13 17:00N 25°43' W 079°60'4 7.9
2018-Jun-13 16:30N 25°39' W 080°01'4 8.2
2018-Jun-13 16:00N 25°35' W 080°01'  
Track history (hours):
 
Tides and Currents Weather Stations Pressure Air Temp Water Temp Dewpoint Dewpoint Depression Visibility Wind Speed Wind Dir Waves Ship Positions

Linda Lee Bouchard

Owner: LINDA LEE BOUCHARD, Melville, NY. More information available from US FCC via Universal Licensing System and Coast Guard Vessel Documentation Center.

Last reported at 2018-Jun-16 21:40 UTC. Time now 2018-Jun-25 13:50 UTC.
Position N 25°22' W 080°03'.
Warning: this ship's position is 8 days out of date.

Length 162 m; draft 8.1 m.

Type: . MMSI: 367115000.

Date/timePositionNaut miles runAvg speedWind from/ knotsBaromVisibWave heightAir tempDewpointWater temp
2018-Jun-16 21:40N 25°22' W 080°03'6 7.5
2018-Jun-16 20:54N 25°27' W 080°02'3 7.4
2018-Jun-16 20:28N 25°31' W 080°02'3 7.4
2018-Jun-16 20:00N 25°34' W 080°02'4 7.3
2018-Jun-16 19:31N 25°38' W 080°02'4 7.3
2018-Jun-16 19:01N 25°41' W 080°03'4 7.2
2018-Jun-16 18:29N 25°45' W 080°03'4 7.4
2018-Jun-16 18:00N 25°49' W 080°03'4 7.5
2018-Jun-16 17:31N 25°52' W 080°04'4 8.5
2018-Jun-16 17:01N 25°57' W 080°04'4 8.4
2018-Jun-16 16:31N 26°00' W 080°02'4 7.7
2018-Jun-16 16:01N 26°04' W 080°03'4 8.1
2018-Jun-16 15:29N 26°06' W 080°07'0 0.5
2018-Jun-16 15:01N 26°06' W 080°07'0 0.0
2018-Jun-16 14:30N 26°06' W 080°07'0 0.0
2018-Jun-16 13:59N 26°06' W 080°07'0 0.0
2018-Jun-16 13:30N 26°06' W 080°07'0 0.0
2018-Jun-16 13:00N 26°06' W 080°07'0 0.0
2018-Jun-16 12:30N 26°06' W 080°07'0 0.0
2018-Jun-16 12:00N 26°06' W 080°07'0 0.0
2018-Jun-16 11:30N 26°06' W 080°07'0 0.0
2018-Jun-16 10:59N 26°06' W 080°07'0 0.0
2018-Jun-16 10:30N 26°06' W 080°07'0 0.0
2018-Jun-16 10:00N 26°06' W 080°07'0 0.0
2018-Jun-16 09:30N 26°06' W 080°07'0 0.0
2018-Jun-16 09:00N 26°06' W 080°07'0 0.0
2018-Jun-16 08:29N 26°06' W 080°07'0 0.0
2018-Jun-16 08:00N 26°06' W 080°07'0 0.0
2018-Jun-16 07:29N 26°06' W 080°07'0 0.0
2018-Jun-16 07:01N 26°06' W 080°07'0 0.0
2018-Jun-16 06:31N 26°06' W 080°07'0 0.0
2018-Jun-16 06:00N 26°06' W 080°07'0 0.0
2018-Jun-16 05:29N 26°06' W 080°07'0 0.0
2018-Jun-16 05:00N 26°06' W 080°07'0 0.0
2018-Jun-16 04:31N 26°06' W 080°07'0 0.0
2018-Jun-16 04:01N 26°06' W 080°07'0 0.0
2018-Jun-16 03:30N 26°06' W 080°07'0 0.0
2018-Jun-16 03:01N 26°06' W 080°07'0 0.0
2018-Jun-16 02:31N 26°06' W 080°07'0 0.0
2018-Jun-16 02:00N 26°06' W 080°07'0 0.0
2018-Jun-16 01:31N 26°06' W 080°07'0 0.0
2018-Jun-16 01:00N 26°06' W 080°07'0 0.0
2018-Jun-16 00:30N 26°06' W 080°07'0 0.0
2018-Jun-16 00:01N 26°06' W 080°07'0 0.0
2018-Jun-15 23:30N 26°06' W 080°07'0 0.0
2018-Jun-15 23:00N 26°06' W 080°07'0 0.0
2018-Jun-15 22:29N 26°06' W 080°07'0 0.0
2018-Jun-15 22:00N 26°06' W 080°07'0 0.0
2018-Jun-15 21:30N 26°06' W 080°07'0 0.0
2018-Jun-15 20:57N 26°06' W 080°07'0 0.0
2018-Jun-15 20:30N 26°06' W 080°07'0 0.0
2018-Jun-15 20:00N 26°06' W 080°07'0 0.0
2018-Jun-15 19:30N 26°06' W 080°07'0 0.0
2018-Jun-15 19:00N 26°06' W 080°07'0 0.0
2018-Jun-15 18:30N 26°06' W 080°07'0 0.0
2018-Jun-15 18:00N 26°06' W 080°07'0 0.0
2018-Jun-15 17:30N 26°06' W 080°07'0 0.0
2018-Jun-15 17:00N 26°06' W 080°07'0 0.0
2018-Jun-15 16:31N 26°06' W 080°07'0 0.0
2018-Jun-15 16:01N 26°06' W 080°07'0 0.0
2018-Jun-15 15:31N 26°06' W 080°07'0 0.0
2018-Jun-15 15:01N 26°06' W 080°07'0 0.0
2018-Jun-15 14:31N 26°06' W 080°07'0 0.0
2018-Jun-15 14:00N 26°06' W 080°07'0 0.0
2018-Jun-15 13:31N 26°06' W 080°07'0 0.0
2018-Jun-15 13:01N 26°06' W 080°07'0 0.0
2018-Jun-15 12:31N 26°06' W 080°07'0 0.0
2018-Jun-15 12:00N 26°06' W 080°07'0 0.0
2018-Jun-15 11:31N 26°06' W 080°07'0 0.0
2018-Jun-15 11:00N 26°06' W 080°07'0 0.0
2018-Jun-15 10:30N 26°06' W 080°07'0 0.0
2018-Jun-15 10:00N 26°06' W 080°07'0 0.0
2018-Jun-15 09:30N 26°06' W 080°07'0 0.0
2018-Jun-15 09:00N 26°06' W 080°07'0 0.4
2018-Jun-15 08:29N 26°06' W 080°07'3 5.2
2018-Jun-15 08:00N 26°06' W 080°04'3 5.2
2018-Jun-15 07:30N 26°09' W 080°04'3 5.9
2018-Jun-15 07:00N 26°12' W 080°03'4 8.2
2018-Jun-15 06:30N 26°16' W 080°02'4 8.4
2018-Jun-15 06:00N 26°20' W 080°02'26 1.0
2018-Jun-14 02:39N 26°46' W 080°03'1 1.9
2018-Jun-14 02:22N 26°46' W 080°02'27 6.4
2018-Jun-13 22:14N 26°20' W 079°55'2 7.4
2018-Jun-13 22:01N 26°19' W 079°55'4 7.2
2018-Jun-13 21:29N 26°15' W 079°56'3 7.2
2018-Jun-13 21:00N 26°12' W 079°56'4 7.0
2018-Jun-13 20:30N 26°08' W 079°57'3 7.2
2018-Jun-13 20:01N 26°05' W 079°57'4 7.2
2018-Jun-13 19:31N 26°01' W 079°58'4 7.3
2018-Jun-13 19:01N 25°57' W 079°58'4 7.3
2018-Jun-13 18:31N 25°54' W 079°58'4 7.1
2018-Jun-13 18:01N 25°50' W 079°59'4 7.4
2018-Jun-13 17:31N 25°47' W 079°59'4 8.1
2018-Jun-13 17:00N 25°43' W 079°60'4 7.9
2018-Jun-13 16:30N 25°39' W 080°01'4 8.2
2018-Jun-13 16:00N 25°35' W 080°01'  

Dump ship's entire track history